Fish Creek, WI

11:23 PM CST on November 23, 2014 (GMT -0600)
Egg Harbor WI | Change Station
CLOSE
Current Station
Personal Weather Station
Location: Egg Harbor, WI
Elevation: 650 ft
Nearby Weather Stations
Active Advisory: Special Statement

Elev 650 ft 45.05 °N, 87.28 °W | Updated 54 seconds ago

Rain
Rain
45.3 °F
Feels Like 45 °F
N
0.0
Wind Variable Wind from North
Gusts 0.0 mph

Today
High -- | Low -- °F
--% Chance of Precip.
Yesterday
High -- | Low -- °F
Precip. -- in
6:57 AM 4:12 PM
Waxing Crescent, 4% visible
Pressure 29.17 in
Visibility 0.5 miles
Clouds Overcast 300 ft
Windchill 45 °F
Dew Point 45 °F
Humidity 99%
Rainfall 0.27 in
Snow Depth Not available.
UV 0 out of 12
Pollen .10 out of 12
Air Quality Not available.
Flu Activity Not available.
METAR KMNM 240515Z AUTO 35003KT 1/2SM OVC003 06/04 A2917 RMK AO1

More Conditions Fewer Conditions

Pressure 29.17 in
Visibility 0.5 miles
Clouds Overcast 300 ft
Windchill 45 °F
Dew Point 45 °F
Humidity 99%
Rainfall 0.27 in
Snow Depth Not available.
UV 0 out of 12
Pollen .10 out of 12
Air Quality Not available.
Flu Activity Not available.
METAR KMNM 240515Z AUTO 35003KT 1/2SM OVC003 06/04 A2917 RMK AO1

More Conditions Fewer Conditions

10-Day Weather Forecast

Almanac

Astronomy

Nov. 23, 2014 Rise Set
Actual Time
Civil Twilight
Nautical Twilight
Astronomical Twilight
Moon
Length of Visible Light
Length of Day
Tomorrow will be .
, % of the Moon is Illuminated

Today's Extremes

State Highs State Lows

Community

WunderPhotos

Upload Photos

1,773,269 photos uploaded!

WunderBlogs® & News

Nearby

Air Quality

  Air Quality AQ Index Pollutant
Not available.

Snow Depth

Station Depth Elevation

Earthquake Activity

City Distance Mag. Time & Date
Minimum magnitude displayed is 2.5.

Coastal Water Temperatures

Place Temperature

Nearby Weather Stations